Granite Falls, Minnesota
Current Conditions -  °F | °C
As of 4:52 AM on Monday 20 Oct 2014 (Local Time) from KGDB Reporting Station
Clear Clear  
Wind Chill: 32°   Ceiling: Unl
Heat Index: 37°   Visibility: 7mi
Dew Point: 34°   Wind: 6mph
Humidity: 91%   Direction: 270°W
Pressure: 30"   Gusts: NA
Location:  44.81°N, 95.55°W
Report Text: KGDB 200952Z AUTO 27005KT 7SM CLR 03/01 A3000 RMK AO2 T00250011
Loading
Personal Weather Stations






























Interactive Weather Map
Tropical Storm Tracking
New forecast layout! Learn more

10-Day Weather Forecast

Advertisements
Track Severe Weather on mobile